Impacts TAF Board INFO
FOR SITUATIONAL AWARENESS. NOT TO BE USED FOR FLIGHT PLANNING PURPOSES.
IDs:

KLAX - Los Angeles Intl, CA, US

Issued at 0546 UTC 17 Dec 2017
Updated at 0808 UTC 17 Dec 2017
Potential Impact None Slight Moderate High
Time0753Z 17/09Z 17/10Z 17/11Z 17/12Z 17/13Z 17/14Z 17/15Z 17/16Z 17/17Z 17/18Z 17/19Z 17/20Z 17/21Z>>
Type OBS PRVL PRVL PRVL PRVL PRVL PRVL PRVL PRVL PRVL PRVL PRVL PRVL PRVL
VIS 10 >6 >6 >6 >6 >6 >6 >6 >6 >6 >6 >6 >6 >6
CIG -- -- -- -- -- -- -- -- -- -- -- -- -- --
Cover CLR SKC SKC SKC SKC SKC SKC SKC SKC SKC SKC SKC SKC SKC
FltCat VFR VFR VFR VFR VFR VFR VFR VFR VFR VFR VFR VFR VFR VFR
WX -- -- -- -- -- -- -- -- -- -- -- -- -- --
WDir VRB 40 40 40 40 40 40 40 40 40 40 40 40 270
WSpd 0 7 7 7 7 7 7 7 7 7 7 7 7 8
WGst -- -- -- -- -- -- -- -- -- -- -- -- -- --

Raw TAF
KLAX 170546Z 1706/1812 VRB03KT P6SM SKC
  FM170900 04007KT P6SM SKC WS010/03035KT
  FM172100 27008KT P6SM SKC
  FM180300 VRB03KT P6SM SKC


Raw METAR
KLAX 170753Z 00000KT 10SM CLR 14/09 A2979 RMK AO2 SLP085 T01440094 401890117
KLAX 170653Z VRB04KT 10SM CLR 14/10 A2980 RMK AO2 SLP089 T01440100
KLAX 170553Z 34005KT 10SM CLR 16/12 A2979 RMK AO2 SLP086 T01560117 10167 20150 53014

METAR Board
Radar Display
Forecast Discussion

FOR SITUATIONAL AWARENESS. NOT TO BE USED FOR FLIGHT PLANNING PURPOSES.